This is the latest recevied weather packets stored in our database for station/object DG6HD-13. If no packets are shown the sender has not sent any weather packets the latest 1 day(s).
| Time | Temp. | Humidity | Pressure | Rain* | Wind** | Luminosity | Snow |
|---|---|---|---|---|---|---|---|
| 1778075995 | 10.56° C | 57% | 1009.8 hPa | - | - | - | - |
| 1778075094 | 10.56° C | 56% | 1009.8 hPa | - | - | - | - |
| 1778068788 | 10° C | 59% | 1009 hPa | - | - | - | - |
| 1778067887 | 9.44° C | 60% | 1009 hPa | - | - | - | - |
| 1778066986 | 9.44° C | 61% | 1009 hPa | - | - | - | - |
| 1778065184 | 9.44° C | 60% | 1008.9 hPa | - | - | - | - |
| 1778063383 | 8.89° C | 62% | 1008.9 hPa | - | - | - | - |
| 1778062482 | 8.89° C | 62% | 1008.9 hPa | - | - | - | - |
| 1778061581 | 8.89° C | 61% | 1008.8 hPa | - | - | - | - |
| 1778060680 | 8.33° C | 62% | 1008.7 hPa | - | - | - | - |
| 1778058879 | 8.33° C | 60% | 1008.7 hPa | - | - | - | - |
| 1778057978 | 8.33° C | 60% | 1008.6 hPa | - | - | - | - |
| 1778057077 | 7.78° C | 59% | 1008.6 hPa | - | - | - | - |
| 1778056176 | 7.78° C | 59% | 1008.5 hPa | - | - | - | - |
| 1778055275 | 7.78° C | 58% | 1008.7 hPa | - | - | - | - |
| 1778053474 | 7.78° C | 56% | 1008.5 hPa | - | - | - | - |
| 1778052573 | 7.78° C | 56% | 1008.5 hPa | - | - | - | - |
| 1778051672 | 7.78° C | 56% | 1008.5 hPa | - | - | - | - |
| 1778048969 | 7.78° C | 55% | 1008.4 hPa | - | - | - | - |
| 1778048068 | 7.78° C | 55% | 1008.4 hPa | - | - | - | - |
| 1778043564 | 7.22° C | 54% | 1008.7 hPa | - | - | - | - |
| 1778042663 | 7.78° C | 53% | 1008.7 hPa | - | - | - | - |
| 1778041762 | 8.33° C | 51% | 1008.8 hPa | - | - | - | - |
| 1778040861 | 7.22° C | 54% | 1008.8 hPa | - | - | - | - |
| 1778039060 | 7.22° C | 54% | 1008.9 hPa | - | - | - | - |
* Rain since midnight (hover to see other rain measurements)
** Current wind speed in m/s (hover to see current wind gust speed)